createdAt,value
2019-04-29T00:07:51.611Z,9.17
2019-04-29T00:18:51.944Z,9.13
2019-04-29T00:29:56.116Z,8.90
2019-04-29T00:40:57.323Z,9.09
2019-04-29T00:51:58.799Z,8.42
2019-04-29T01:03:01.194Z,8.91
2019-04-29T01:14:02.520Z,8.80
2019-04-29T01:25:00.331Z,9.28
2019-04-29T01:36:02.219Z,9.34
2019-04-29T01:47:00.509Z,9.06
2019-04-29T01:57:59.904Z,9.13
2019-04-29T02:09:04.999Z,9.13
2019-04-29T02:20:02.531Z,9.31
2019-04-29T02:31:01.769Z,9.00
2019-04-29T02:42:04.018Z,8.97
2019-04-29T02:53:02.962Z,8.93
2019-04-29T03:04:05.124Z,8.95
2019-04-29T03:15:06.143Z,8.84
2019-04-29T03:26:05.520Z,8.58
2019-04-29T03:37:07.658Z,7.96
2019-04-29T03:48:05.666Z,7.26
2019-04-29T03:59:09.921Z,7.06
2019-04-29T04:10:11.875Z,7.42
2019-04-29T04:21:10.340Z,7.78
2019-04-29T04:32:15.053Z,8.18
2019-04-29T04:43:17.802Z,8.30
2019-04-29T04:54:17.843Z,8.48
2019-04-29T05:05:19.285Z,8.76
2019-04-29T05:16:16.631Z,8.97
2019-04-29T05:27:17.758Z,9.27
2019-04-29T05:38:19.473Z,9.85
2019-04-29T05:49:23.190Z,10.93
2019-04-29T06:00:24.304Z,11.32
2019-04-29T06:11:28.028Z,11.51
2019-04-29T06:22:26.035Z,11.81
2019-04-29T06:33:24.158Z,12.15
2019-04-29T06:44:28.078Z,12.27
2019-04-29T06:55:30.019Z,12.51
2019-04-29T07:06:32.487Z,12.81
2019-04-29T07:17:36.439Z,12.82
2019-04-29T07:28:38.877Z,12.69
2019-04-29T07:39:38.464Z,12.78
2019-04-29T07:50:39.282Z,12.64
2019-04-29T08:01:42.253Z,12.85
2019-04-29T08:12:41.381Z,12.84
2019-04-29T08:23:42.242Z,12.94
2019-04-29T08:34:43.816Z,13.32
2019-04-29T08:45:44.791Z,13.38
2019-04-29T08:57:01.736Z,12.59
2019-04-29T09:07:48.556Z,12.79
2019-04-29T09:18:45.340Z,13.02
2019-04-29T09:29:48.992Z,13.04
2019-04-29T09:40:54.630Z,13.03
2019-04-29T09:51:53.297Z,13.37
2019-04-29T10:02:51.058Z,13.29
2019-04-29T10:13:40.006Z,13.41
2019-04-29T10:24:34.121Z,13.18
2019-04-29T10:35:33.685Z,13.44
2019-04-29T10:46:31.687Z,13.28
2019-04-29T10:57:33.769Z,13.41
2019-04-29T11:08:33.735Z,13.59
2019-04-29T11:19:35.155Z,13.53
2019-04-29T11:30:40.728Z,13.40
2019-04-29T11:41:41.861Z,13.56
2019-04-29T11:52:38.960Z,13.73
2019-04-29T12:03:42.500Z,13.56
2019-04-29T12:14:40.774Z,13.66
2019-04-29T12:25:38.305Z,13.61
2019-04-29T12:36:36.755Z,13.59
2019-04-29T12:47:32.895Z,13.77
2019-04-29T12:58:35.688Z,13.83
2019-04-29T13:09:36.686Z,13.78
2019-04-29T13:20:32.446Z,14.11
2019-04-29T13:31:38.451Z,13.86
2019-04-29T13:42:36.352Z,14.13
2019-04-29T13:53:37.586Z,14.19
2019-04-29T14:04:40.314Z,14.01
2019-04-29T14:15:42.004Z,14.05
2019-04-29T14:26:47.599Z,14.28
2019-04-29T14:37:54.892Z,13.96
2019-04-29T14:48:48.513Z,13.98
2019-04-29T14:59:48.035Z,13.94
2019-04-29T15:10:46.298Z,14.03
2019-04-29T15:21:45.847Z,13.91
2019-04-29T15:32:47.209Z,13.86
2019-04-29T15:43:47.046Z,13.89
2019-04-29T15:54:41.612Z,13.86
2019-04-29T16:06:00.018Z,13.76
2019-04-29T16:16:43.660Z,13.70
2019-04-29T16:27:51.510Z,13.56
2019-04-29T16:38:51.394Z,13.45
2019-04-29T16:49:57.548Z,13.24
2019-04-29T17:01:01.694Z,13.09
2019-04-29T17:12:02.045Z,13.18
2019-04-29T17:23:05.587Z,13.06
2019-04-29T17:34:05.639Z,12.99
2019-04-29T17:45:11.991Z,12.91
2019-04-29T17:56:06.163Z,12.66
2019-04-29T18:07:12.001Z,12.59
2019-04-29T18:18:17.373Z,12.55
2019-04-29T18:29:17.847Z,12.56
2019-04-29T18:40:20.098Z,12.51
2019-04-29T18:51:15.344Z,12.45
2019-04-29T19:02:16.551Z,12.46
2019-04-29T19:13:13.354Z,12.48
2019-04-29T19:24:08.927Z,12.49
2019-04-29T19:35:07.887Z,12.34
2019-04-29T19:46:03.142Z,12.36
2019-04-29T19:57:03.551Z,12.33
2019-04-29T20:08:03.672Z,12.23
2019-04-29T20:19:02.136Z,12.13
2019-04-29T20:30:15.942Z,12.11
2019-04-29T20:41:13.124Z,12.12
2019-04-29T20:52:20.579Z,12.13
2019-04-29T21:03:27.680Z,12.13
2019-04-29T21:14:33.873Z,11.98
2019-04-29T21:25:35.450Z,11.97
2019-04-29T21:36:39.104Z,11.94
2019-04-29T21:47:44.744Z,11.90
2019-04-29T21:58:45.449Z,11.95
2019-04-29T22:09:50.318Z,12.00
2019-04-29T22:20:50.037Z,11.90
2019-04-29T22:31:53.592Z,11.84
2019-04-29T22:43:04.753Z,11.81
2019-04-29T22:53:58.363Z,11.79
2019-04-29T23:04:58.463Z,11.75
2019-04-29T23:16:01.782Z,11.74
2019-04-29T23:27:02.274Z,11.78
2019-04-29T23:38:09.354Z,11.94
2019-04-29T23:49:07.831Z,11.81
